createdAt,value
2019-03-06T00:01:54.091Z,8.60
2019-03-06T00:04:22.093Z,8.50
2019-03-06T00:06:50.139Z,8.77
2019-03-06T00:09:18.188Z,8.90
2019-03-06T00:11:46.180Z,8.80
2019-03-06T00:14:14.157Z,7.53
2019-03-06T00:16:42.147Z,10.33
2019-03-06T00:19:10.296Z,9.37
2019-03-06T00:21:38.273Z,9.47
2019-03-06T00:24:06.238Z,8.93
2019-03-06T00:26:34.238Z,9.50
2019-03-06T00:29:02.270Z,8.87
2019-03-06T00:31:30.239Z,9.13
2019-03-06T00:33:58.271Z,8.40
2019-03-06T00:36:27.623Z,10.50
2019-03-06T00:38:55.625Z,9.17
2019-03-06T00:41:39.248Z,8.57
2019-03-06T00:44:07.345Z,8.00
2019-03-06T00:46:35.382Z,8.40
2019-03-06T00:49:03.344Z,7.40
2019-03-06T00:51:31.325Z,7.50
2019-03-06T00:53:59.377Z,8.20
2019-03-06T00:56:27.358Z,6.63
2019-03-06T00:58:55.311Z,8.50
2019-03-06T01:01:23.608Z,7.00
2019-03-06T01:03:51.553Z,7.17
2019-03-06T01:06:19.530Z,7.50
2019-03-06T01:08:48.649Z,6.73
2019-03-06T01:11:16.650Z,7.07
2019-03-06T01:13:44.696Z,6.20
2019-03-06T01:16:12.777Z,7.03
2019-03-06T01:18:40.805Z,6.90
2019-03-06T01:21:08.776Z,7.00
2019-03-06T01:23:36.765Z,7.20
2019-03-06T01:26:04.850Z,5.80
2019-03-06T01:28:33.215Z,7.20
2019-03-06T01:31:01.192Z,6.67
2019-03-06T01:33:57.329Z,6.63
2019-03-06T01:36:44.916Z,6.77
2019-03-06T01:39:23.153Z,6.67
2019-03-06T01:42:08.729Z,7.27
2019-03-06T01:44:41.206Z,6.90
2019-03-06T01:47:09.172Z,6.50
2019-03-06T01:49:37.154Z,6.37
2019-03-06T01:52:05.527Z,7.20
2019-03-06T01:54:33.577Z,6.70
2019-03-06T01:57:01.549Z,6.53
2019-03-06T01:59:29.748Z,6.67
2019-03-06T02:01:57.821Z,6.77
2019-03-06T02:04:25.889Z,7.20
2019-03-06T02:06:53.933Z,6.90
2019-03-06T02:09:21.893Z,6.20
2019-03-06T02:11:49.973Z,6.53
2019-03-06T02:14:18.146Z,7.10
2019-03-06T02:16:46.151Z,6.40
2019-03-06T02:19:14.190Z,6.50
2019-03-06T02:21:42.267Z,6.17
2019-03-06T02:24:10.290Z,6.47
2019-03-06T02:26:38.297Z,7.10
2019-03-06T02:29:06.305Z,6.10
2019-03-06T02:31:34.294Z,6.30
2019-03-06T02:34:02.355Z,6.40
2019-03-06T02:36:30.392Z,6.70
2019-03-06T02:38:58.416Z,6.50
2019-03-06T02:41:26.423Z,5.80
2019-03-06T02:43:54.393Z,6.50
2019-03-06T02:46:22.374Z,6.13
2019-03-06T02:48:50.332Z,6.63
2019-03-06T02:51:18.404Z,6.57
2019-03-06T02:53:46.475Z,6.47
2019-03-06T02:56:14.532Z,8.20
2019-03-06T02:59:05.949Z,7.37
2019-03-06T03:01:41.921Z,6.73
2019-03-06T03:04:15.416Z,6.37
2019-03-06T03:06:46.695Z,7.67
2019-03-06T03:09:16.407Z,10.60
2019-03-06T03:11:44.413Z,9.97
2019-03-06T03:14:12.451Z,9.83
2019-03-06T03:16:40.490Z,9.70
2019-03-06T03:19:08.473Z,9.30
2019-03-06T03:21:36.425Z,8.47
2019-03-06T03:24:04.410Z,8.33
2019-03-06T03:26:32.590Z,9.30
2019-03-06T03:29:00.653Z,8.20
2019-03-06T03:31:28.746Z,7.37
2019-03-06T03:33:56.807Z,9.07
2019-03-06T03:36:24.766Z,8.67
2019-03-06T03:38:52.737Z,9.33
2019-03-06T03:41:21.004Z,8.63
2019-03-06T03:43:48.985Z,8.77
2019-03-06T03:46:16.976Z,8.13
2019-03-06T03:48:45.034Z,8.13
2019-03-06T03:51:13.106Z,9.40
2019-03-06T03:53:41.452Z,9.33
2019-03-06T03:56:09.441Z,9.50
2019-03-06T03:58:37.398Z,9.50
2019-03-06T04:01:05.383Z,7.73
2019-03-06T04:03:33.477Z,6.80
2019-03-06T04:06:01.515Z,6.60
2019-03-06T04:08:29.483Z,6.87
2019-03-06T04:10:57.507Z,6.87
2019-03-06T04:13:25.518Z,7.30
2019-03-06T04:15:53.484Z,7.67
2019-03-06T04:18:21.485Z,8.90
2019-03-06T04:20:49.536Z,7.63
2019-03-06T04:23:17.825Z,8.37
2019-03-06T04:25:45.902Z,8.80
2019-03-06T04:28:13.972Z,10.07
2019-03-06T04:30:42.016Z,9.27
2019-03-06T04:33:09.990Z,9.57
2019-03-06T04:35:38.031Z,9.23
2019-03-06T04:38:06.061Z,10.47
2019-03-06T04:40:34.127Z,9.20
2019-03-06T04:43:02.165Z,9.63
2019-03-06T04:45:30.160Z,10.20
2019-03-06T04:47:58.214Z,9.57
2019-03-06T04:50:26.508Z,9.60
2019-03-06T04:52:54.557Z,9.50
2019-03-06T04:55:22.541Z,9.07
2019-03-06T04:57:50.520Z,10.67
2019-03-06T05:00:18.593Z,10.93
2019-03-06T05:02:46.667Z,10.33
2019-03-06T05:05:14.722Z,10.30
2019-03-06T05:07:42.989Z,8.90
2019-03-06T05:10:10.968Z,8.80
2019-03-06T05:12:38.965Z,9.60
2019-03-06T05:15:07.810Z,10.60
2019-03-06T05:17:55.030Z,9.43
2019-03-06T05:20:23.045Z,9.00
2019-03-06T05:22:51.072Z,9.90
2019-03-06T05:25:19.063Z,8.13
2019-03-06T05:27:47.129Z,8.43
2019-03-06T05:30:15.504Z,9.20
2019-03-06T05:32:43.828Z,7.97
2019-03-06T05:35:26.002Z,8.60
2019-03-06T05:37:58.873Z,8.97
2019-03-06T05:40:26.845Z,9.10
2019-03-06T05:42:54.922Z,9.07
2019-03-06T05:45:22.980Z,8.53
2019-03-06T05:47:50.965Z,9.27
2019-03-06T05:50:20.354Z,9.73
2019-03-06T05:52:48.580Z,8.83
2019-03-06T05:55:16.614Z,8.87
2019-03-06T05:57:44.657Z,9.67
2019-03-06T06:00:12.665Z,7.93
2019-03-06T06:02:40.945Z,9.20
2019-03-06T06:05:10.220Z,8.50
2019-03-06T06:07:38.193Z,8.33
2019-03-06T06:10:06.368Z,9.03
2019-03-06T06:12:34.378Z,8.70
2019-03-06T06:15:02.689Z,7.80
2019-03-06T06:17:30.689Z,8.70
2019-03-06T06:19:58.733Z,8.07
2019-03-06T06:22:41.120Z,9.90
2019-03-06T06:25:09.017Z,9.30
2019-03-06T06:27:36.987Z,8.87
2019-03-06T06:30:05.069Z,8.77
2019-03-06T06:32:33.123Z,10.90
2019-03-06T06:35:01.114Z,12.40
2019-03-06T06:37:29.223Z,14.10
2019-03-06T06:39:57.484Z,13.80
2019-03-06T06:42:25.526Z,13.70
2019-03-06T06:44:53.491Z,14.60
2019-03-06T06:47:21.503Z,13.90
2019-03-06T06:49:49.563Z,13.33
2019-03-06T06:52:35.514Z,13.33
2019-03-06T06:55:10.196Z,13.10
2019-03-06T06:57:56.766Z,12.83
2019-03-06T07:00:54.311Z,13.33
2019-03-06T07:03:52.727Z,12.93
2019-03-06T07:06:32.126Z,12.67
2019-03-06T07:09:17.911Z,11.97
2019-03-06T07:12:01.445Z,13.43
2019-03-06T07:14:48.505Z,13.80
2019-03-06T07:17:38.333Z,14.20
2019-03-06T07:20:24.661Z,13.20
2019-03-06T07:23:11.670Z,13.43
2019-03-06T07:25:57.362Z,13.83
2019-03-06T07:28:38.143Z,13.13
2019-03-06T07:31:24.080Z,13.30
2019-03-06T07:34:23.509Z,12.40
2019-03-06T07:37:28.468Z,12.23
2019-03-06T07:39:53.473Z,10.70
2019-03-06T07:42:40.559Z,10.37
2019-03-06T07:45:59.395Z,10.70
2019-03-06T07:48:56.295Z,9.87
2019-03-06T07:51:46.116Z,10.80
2019-03-06T07:54:39.242Z,9.00
2019-03-06T07:57:24.677Z,8.77
2019-03-06T07:59:52.810Z,10.07
2019-03-06T08:02:21.797Z,10.40
2019-03-06T08:04:53.720Z,9.80
2019-03-06T08:07:21.749Z,10.70
2019-03-06T08:09:49.877Z,10.47
2019-03-06T08:12:36.918Z,10.70
2019-03-06T08:15:23.229Z,11.47
2019-03-06T08:18:06.172Z,10.70
2019-03-06T08:20:53.254Z,10.70
2019-03-06T08:23:43.355Z,11.27
2019-03-06T08:26:11.404Z,10.80
2019-03-06T08:28:39.440Z,11.73
2019-03-06T08:31:31.445Z,11.37
2019-03-06T08:33:59.365Z,11.97
2019-03-06T08:36:27.449Z,12.20
2019-03-06T08:38:55.447Z,12.40
2019-03-06T08:41:25.688Z,12.90
2019-03-06T08:43:55.026Z,13.27
2019-03-06T08:46:41.918Z,14.20
2019-03-06T08:49:35.882Z,12.70
2019-03-06T08:52:09.741Z,12.07
2019-03-06T08:54:56.822Z,12.53
2019-03-06T08:57:42.824Z,13.00
2019-03-06T09:00:25.474Z,13.77
2019-03-06T09:03:16.254Z,19.50
2019-03-06T09:06:03.622Z,13.20
2019-03-06T09:08:50.601Z,12.67
2019-03-06T09:11:39.432Z,11.90
2019-03-06T09:14:24.597Z,13.50
2019-03-06T09:17:14.358Z,13.33
2019-03-06T09:20:02.280Z,13.70
2019-03-06T09:22:55.320Z,14.60
2019-03-06T09:25:57.440Z,12.70
2019-03-06T09:28:40.548Z,11.90
2019-03-06T09:31:24.783Z,11.90
2019-03-06T09:34:08.226Z,11.60
2019-03-06T09:36:55.243Z,12.40
2019-03-06T09:39:31.250Z,11.80
2019-03-06T09:42:09.308Z,12.47
2019-03-06T09:45:11.521Z,13.37
2019-03-06T09:48:16.538Z,13.87
2019-03-06T09:51:03.636Z,14.30
2019-03-06T09:53:53.462Z,15.40
2019-03-06T09:56:43.673Z,11.70
2019-03-06T09:59:28.782Z,15.57
2019-03-06T10:02:07.199Z,13.80
2019-03-06T10:04:41.670Z,11.47
2019-03-06T10:07:27.666Z,12.43
2019-03-06T10:10:18.126Z,13.93
2019-03-06T10:13:01.145Z,12.63
2019-03-06T10:15:46.908Z,11.57
2019-03-06T10:18:33.991Z,11.67
2019-03-06T10:21:02.074Z,11.50
2019-03-06T10:23:30.125Z,11.73
2019-03-06T10:25:58.289Z,11.47
2019-03-06T10:28:28.013Z,13.07
2019-03-06T10:31:02.387Z,11.70
2019-03-06T10:33:25.670Z,11.93
2019-03-06T10:35:53.741Z,12.33
2019-03-06T10:38:22.792Z,12.20
2019-03-06T10:40:50.793Z,11.70
2019-03-06T10:43:19.771Z,12.90
2019-03-06T10:45:47.724Z,13.60
2019-03-06T10:48:15.819Z,12.57
2019-03-06T10:50:43.775Z,13.87
2019-03-06T10:53:11.846Z,12.40
2019-03-06T10:55:39.907Z,11.43
2019-03-06T10:58:08.062Z,11.87
2019-03-06T11:00:40.154Z,12.37
2019-03-06T11:03:08.231Z,12.03
2019-03-06T11:05:36.261Z,12.70
2019-03-06T11:08:04.966Z,12.33
2019-03-06T11:10:33.622Z,11.60
2019-03-06T11:13:02.635Z,11.73
2019-03-06T11:15:30.893Z,13.20
2019-03-06T11:17:58.841Z,11.83
2019-03-06T11:20:28.274Z,12.23
2019-03-06T11:22:57.231Z,13.43
2019-03-06T11:25:25.428Z,12.33
2019-03-06T11:27:56.012Z,12.23
2019-03-06T11:30:25.979Z,11.30
2019-03-06T11:32:54.651Z,12.40
2019-03-06T11:35:23.121Z,12.30
2019-03-06T11:37:51.213Z,12.50
2019-03-06T11:40:19.368Z,13.03
2019-03-06T11:42:47.441Z,13.20
2019-03-06T11:45:17.417Z,13.53
2019-03-06T11:47:45.826Z,13.47
2019-03-06T11:50:14.570Z,13.20
2019-03-06T11:52:42.677Z,13.83
2019-03-06T11:55:10.788Z,13.60
2019-03-06T11:57:39.197Z,14.53
2019-03-06T12:00:11.170Z,13.10
2019-03-06T12:02:39.532Z,14.10
2019-03-06T12:05:08.339Z,15.73
2019-03-06T12:07:36.485Z,13.50
2019-03-06T12:10:04.862Z,12.90
2019-03-06T12:12:32.897Z,14.00
2019-03-06T12:15:00.875Z,14.27
2019-03-06T12:17:28.966Z,13.97
2019-03-06T12:19:56.932Z,14.37
2019-03-06T12:22:24.912Z,13.70
2019-03-06T12:24:52.964Z,14.47
2019-03-06T12:27:20.922Z,14.50
2019-03-06T12:29:49.198Z,14.67
2019-03-06T12:32:17.197Z,14.40
2019-03-06T12:34:45.254Z,13.90
2019-03-06T12:37:13.304Z,15.33
2019-03-06T12:39:41.393Z,14.07
2019-03-06T12:42:14.368Z,14.40
2019-03-06T12:44:39.338Z,15.67
2019-03-06T12:47:07.335Z,14.63
2019-03-06T12:49:35.463Z,16.00
2019-03-06T12:52:03.682Z,15.30
2019-03-06T12:54:31.793Z,16.17
2019-03-06T12:56:59.847Z,15.87
2019-03-06T12:59:27.895Z,15.53
2019-03-06T13:01:55.872Z,16.10
2019-03-06T13:04:24.295Z,17.70
2019-03-06T13:06:52.327Z,16.97
2019-03-06T13:09:20.449Z,17.10
2019-03-06T13:11:48.464Z,17.97
2019-03-06T13:14:16.534Z,16.80
2019-03-06T13:16:44.539Z,17.60
2019-03-06T13:19:12.565Z,18.30
2019-03-06T13:21:41.577Z,19.07
2019-03-06T13:24:09.631Z,17.00
2019-03-06T13:26:37.609Z,18.10
2019-03-06T13:29:05.781Z,18.43
2019-03-06T13:31:34.075Z,18.80
2019-03-06T13:34:06.964Z,17.73
2019-03-06T13:36:34.925Z,18.30
2019-03-06T13:39:06.265Z,19.13
2019-03-06T13:41:32.612Z,18.63
2019-03-06T13:44:00.669Z,17.33
2019-03-06T13:46:28.949Z,18.33
2019-03-06T13:48:57.029Z,17.93
2019-03-06T13:51:25.066Z,18.20
2019-03-06T13:53:53.092Z,17.50
2019-03-06T13:56:21.125Z,20.47
2019-03-06T13:58:49.308Z,19.00
2019-03-06T14:01:17.564Z,18.87
2019-03-06T14:03:45.546Z,17.70
2019-03-06T14:06:13.622Z,18.77
2019-03-06T14:08:41.667Z,18.30
2019-03-06T14:11:09.659Z,17.90
2019-03-06T14:13:37.711Z,18.73
2019-03-06T14:16:05.841Z,18.53
2019-03-06T14:18:34.178Z,19.70
2019-03-06T14:21:02.226Z,18.50
2019-03-06T14:23:35.030Z,19.80
2019-03-06T14:25:59.914Z,17.50
2019-03-06T14:28:27.927Z,18.97
2019-03-06T14:30:55.984Z,19.00
2019-03-06T14:33:24.480Z,18.73
2019-03-06T14:35:52.981Z,16.50
2019-03-06T14:38:21.017Z,17.47
2019-03-06T14:40:49.014Z,18.00
2019-03-06T14:43:17.017Z,17.17
2019-03-06T14:45:45.129Z,18.00
2019-03-06T14:48:13.163Z,18.80
2019-03-06T14:50:41.529Z,18.67
2019-03-06T14:53:09.516Z,18.87
2019-03-06T14:55:37.510Z,17.00
2019-03-06T14:58:05.657Z,16.83
2019-03-06T15:00:33.666Z,17.60
2019-03-06T15:03:01.727Z,17.60
2019-03-06T15:05:29.800Z,16.03
2019-03-06T15:07:58.001Z,16.40
2019-03-06T15:10:26.035Z,19.60
2019-03-06T15:12:54.085Z,18.80
2019-03-06T15:15:22.217Z,20.10
2019-03-06T15:17:50.276Z,18.10
2019-03-06T15:20:18.628Z,16.67
2019-03-06T15:22:47.366Z,15.90
2019-03-06T15:25:16.500Z,16.17
2019-03-06T15:27:44.688Z,16.00
2019-03-06T15:30:13.966Z,16.03
2019-03-06T15:32:42.252Z,16.67
2019-03-06T15:35:10.645Z,15.53
2019-03-06T15:37:39.157Z,16.40
2019-03-06T15:40:09.340Z,15.77
2019-03-06T15:42:37.439Z,15.10
2019-03-06T15:45:05.585Z,17.90
2019-03-06T15:47:34.042Z,15.03
2019-03-06T15:50:02.778Z,16.40
2019-03-06T15:52:32.442Z,15.73
2019-03-06T15:55:00.541Z,15.20
2019-03-06T15:57:28.703Z,15.93
2019-03-06T15:59:56.788Z,15.17
2019-03-06T16:02:24.941Z,15.30
2019-03-06T16:04:52.939Z,15.80
2019-03-06T16:07:21.172Z,14.33
2019-03-06T16:09:49.196Z,15.30
2019-03-06T16:12:17.252Z,15.97
2019-03-06T16:14:48.931Z,15.93
2019-03-06T16:17:17.018Z,16.47
2019-03-06T16:19:45.050Z,14.93
2019-03-06T16:22:13.913Z,14.27
2019-03-06T16:24:41.891Z,13.87
2019-03-06T16:27:09.879Z,14.03
2019-03-06T16:29:38.049Z,14.90
2019-03-06T16:32:06.234Z,13.60
2019-03-06T16:34:34.292Z,12.43
2019-03-06T16:37:02.785Z,13.40
2019-03-06T16:39:31.332Z,12.20
2019-03-06T16:41:59.345Z,13.47
2019-03-06T16:44:27.433Z,12.70
2019-03-06T16:46:55.476Z,13.20
2019-03-06T16:49:23.568Z,12.50
2019-03-06T16:51:51.585Z,12.00
2019-03-06T16:54:20.251Z,12.30
2019-03-06T16:56:48.264Z,12.77
2019-03-06T16:59:16.518Z,12.27
2019-03-06T17:01:45.150Z,12.43
2019-03-06T17:04:13.831Z,12.03
2019-03-06T17:06:41.799Z,12.60
2019-03-06T17:09:10.089Z,12.40
2019-03-06T17:11:38.124Z,12.80
2019-03-06T17:14:06.183Z,13.30
2019-03-06T17:16:34.185Z,13.20
2019-03-06T17:19:02.296Z,12.17
2019-03-06T17:21:30.382Z,12.47
2019-03-06T17:23:58.850Z,11.40
2019-03-06T17:26:26.918Z,10.40
2019-03-06T17:28:59.633Z,11.47
2019-03-06T17:31:27.666Z,11.23
2019-03-06T17:33:55.682Z,12.00
2019-03-06T17:36:23.769Z,11.37
2019-03-06T17:38:51.934Z,10.17
2019-03-06T17:41:19.897Z,9.90
2019-03-06T17:43:47.841Z,10.60
2019-03-06T17:46:15.978Z,10.43
2019-03-06T17:48:44.018Z,9.70
2019-03-06T17:51:12.102Z,10.73
2019-03-06T17:53:40.132Z,10.20
2019-03-06T17:56:08.129Z,9.53
2019-03-06T17:58:36.302Z,9.40
2019-03-06T18:01:07.762Z,8.90
2019-03-06T18:03:43.118Z,9.53
2019-03-06T18:06:11.157Z,11.30
2019-03-06T18:08:39.252Z,9.50
2019-03-06T18:11:07.456Z,8.90
2019-03-06T18:13:35.603Z,9.10
2019-03-06T18:16:04.219Z,8.70
2019-03-06T18:18:32.472Z,8.90
2019-03-06T18:21:00.500Z,8.93
2019-03-06T18:23:28.671Z,9.00
2019-03-06T18:25:56.664Z,9.20
2019-03-06T18:28:24.711Z,8.87
2019-03-06T18:30:52.802Z,8.13
2019-03-06T18:33:20.842Z,8.63
2019-03-06T18:35:48.838Z,8.60
2019-03-06T18:38:16.947Z,8.47
2019-03-06T18:40:45.079Z,9.33
2019-03-06T18:43:13.198Z,8.60
2019-03-06T18:45:41.228Z,10.53
2019-03-06T18:48:10.207Z,8.43
2019-03-06T18:50:38.181Z,8.13
2019-03-06T18:53:06.281Z,8.07
2019-03-06T18:55:34.333Z,9.77
2019-03-06T18:58:02.444Z,13.20
2019-03-06T19:00:30.467Z,10.07
2019-03-06T19:02:58.569Z,9.70
2019-03-06T19:05:26.652Z,9.33
2019-03-06T19:07:54.778Z,8.93
2019-03-06T19:10:23.745Z,9.53
2019-03-06T19:12:52.257Z,9.43
2019-03-06T19:15:20.322Z,8.03
2019-03-06T19:17:48.349Z,8.67
2019-03-06T19:20:17.246Z,8.47
2019-03-06T19:22:45.353Z,8.20
2019-03-06T19:25:13.750Z,8.00
2019-03-06T19:27:41.820Z,7.70
2019-03-06T19:30:14.313Z,8.37
2019-03-06T19:32:42.396Z,7.90
2019-03-06T19:35:10.518Z,8.23
2019-03-06T19:37:38.525Z,8.20
2019-03-06T19:40:06.493Z,7.60
2019-03-06T19:42:34.556Z,8.03
2019-03-06T19:45:02.749Z,8.53
2019-03-06T19:47:30.805Z,8.20
2019-03-06T19:49:58.871Z,7.37
2019-03-06T19:52:26.897Z,8.60
2019-03-06T19:54:54.911Z,7.77
2019-03-06T19:57:23.145Z,8.63
2019-03-06T19:59:51.159Z,8.13
2019-03-06T20:02:19.293Z,8.80
2019-03-06T20:04:47.405Z,7.97
2019-03-06T20:07:15.445Z,8.03
2019-03-06T20:09:43.458Z,8.40
2019-03-06T20:12:12.067Z,8.23
2019-03-06T20:14:40.173Z,8.20
2019-03-06T20:17:08.733Z,8.33
2019-03-06T20:19:36.846Z,8.30
2019-03-06T20:22:04.931Z,7.40
2019-03-06T20:24:32.969Z,8.90
2019-03-06T20:27:01.039Z,8.33
2019-03-06T20:29:29.048Z,8.53
2019-03-06T20:31:57.160Z,8.23
2019-03-06T20:34:25.370Z,8.10
2019-03-06T20:36:53.348Z,7.43
2019-03-06T20:39:21.737Z,8.57
2019-03-06T20:41:49.689Z,7.90
2019-03-06T20:44:17.987Z,8.30
2019-03-06T20:46:46.152Z,10.80
2019-03-06T20:49:14.302Z,8.67
2019-03-06T20:51:42.564Z,8.10
2019-03-06T20:54:10.650Z,8.30
2019-03-06T20:56:38.689Z,8.60
2019-03-06T20:59:06.864Z,8.80
2019-03-06T21:01:35.102Z,8.13
2019-03-06T21:04:03.294Z,7.97
2019-03-06T21:06:34.624Z,8.20
2019-03-06T21:09:01.344Z,7.87
2019-03-06T21:11:29.472Z,8.17
2019-03-06T21:13:57.530Z,10.10
2019-03-06T21:16:25.534Z,8.50
2019-03-06T21:18:53.606Z,8.80
2019-03-06T21:21:21.601Z,9.13
2019-03-06T21:23:49.693Z,9.20
2019-03-06T21:26:18.456Z,8.10
2019-03-06T21:28:46.547Z,8.60
2019-03-06T21:31:14.579Z,8.20
2019-03-06T21:33:42.570Z,8.80
2019-03-06T21:36:10.654Z,8.50
2019-03-06T21:38:38.712Z,8.27
2019-03-06T21:41:06.693Z,8.60
2019-03-06T21:43:34.773Z,8.73
2019-03-06T21:46:02.769Z,8.23
2019-03-06T21:48:30.807Z,7.93
2019-03-06T21:50:58.872Z,8.27
2019-03-06T21:53:26.926Z,8.47
2019-03-06T21:55:54.967Z,7.67
2019-03-06T21:58:22.977Z,8.50
2019-03-06T22:00:51.082Z,8.30
2019-03-06T22:03:19.226Z,8.60
2019-03-06T22:05:47.612Z,7.77
2019-03-06T22:08:15.745Z,7.87
2019-03-06T22:10:43.722Z,8.60
2019-03-06T22:13:11.772Z,8.40
2019-03-06T22:15:39.769Z,7.70
2019-03-06T22:18:07.793Z,7.50
2019-03-06T22:20:35.839Z,7.77
2019-03-06T22:23:03.880Z,7.50
2019-03-06T22:25:31.944Z,7.70
2019-03-06T22:27:59.962Z,7.87
2019-03-06T22:30:28.048Z,7.80
2019-03-06T22:32:56.061Z,7.83
2019-03-06T22:35:24.161Z,8.50
2019-03-06T22:37:52.200Z,7.40
2019-03-06T22:40:20.201Z,7.17
2019-03-06T22:42:48.452Z,7.50
2019-03-06T22:45:16.490Z,7.17
2019-03-06T22:47:44.520Z,7.70
2019-03-06T22:50:13.103Z,7.70
2019-03-06T22:52:41.279Z,8.03
2019-03-06T22:55:10.480Z,7.60
2019-03-06T22:57:38.533Z,7.80
2019-03-06T23:00:10.168Z,7.13
2019-03-06T23:02:39.215Z,8.23
2019-03-06T23:05:07.281Z,8.13
2019-03-06T23:07:35.350Z,8.07
2019-03-06T23:10:03.393Z,7.10
2019-03-06T23:12:31.387Z,8.80
2019-03-06T23:14:59.440Z,8.63
2019-03-06T23:17:27.481Z,8.10
2019-03-06T23:19:55.527Z,7.73
2019-03-06T23:22:23.586Z,8.10
2019-03-06T23:24:51.636Z,8.57
2019-03-06T23:27:19.606Z,8.63
2019-03-06T23:29:47.760Z,8.10
2019-03-06T23:32:15.747Z,8.53
2019-03-06T23:34:43.834Z,8.60
2019-03-06T23:37:11.861Z,8.00
2019-03-06T23:39:39.956Z,8.13
2019-03-06T23:42:08.058Z,7.50
2019-03-06T23:44:36.045Z,7.80
2019-03-06T23:47:04.077Z,8.77
2019-03-06T23:49:32.196Z,8.37
2019-03-06T23:52:15.022Z,7.80
2019-03-06T23:54:43.044Z,8.70
2019-03-06T23:57:11.089Z,8.90
2019-03-06T23:59:39.075Z,8.60
